Time;durP1;ratioP1;P1;durP2;ratioP2;P2;SDS_P1;SDS_P2;PMS_P1;PMS_P2;Temp;Humidity;BMP_temperature;BMP_pressure;BME280_temperature;BME280_humidity;BME280_pressure;Samples;Min_cycle;Max_cycle;Signal;HPM_P1;HPM_P2
2021/09/08 00:00:25;;;;;;;20.17;11.60;;;;;;;17.05;100.00;101213.69;5039522;28;20255;-70
2021/09/08 00:02:53;;;;;;;19.73;11.75;;;;;;;16.99;100.00;101214.47;5047908;28;20348;-69
2021/09/08 00:05:21;;;;;;;22.10;11.82;;;;;;;17.01;100.00;101202.47;5046615;28;20037;-69
2021/09/08 00:07:49;;;;;;;21.20;10.82;;;;;;;16.95;100.00;101205.94;5047590;28;20048;-67
2021/09/08 00:10:17;;;;;;;19.80;11.45;;;;;;;16.73;100.00;101205.13;5045365;28;20037;-69
2021/09/08 00:12:46;;;;;;;22.90;11.63;;;;;;;16.52;100.00;101214.88;5047798;28;20094;-69
2021/09/08 00:15:15;;;;;;;20.13;10.95;;;;;;;16.37;100.00;101211.41;5048323;28;20052;-69
2021/09/08 00:17:43;;;;;;;20.10;10.48;;;;;;;16.25;100.00;101219.16;5048345;28;20340;-69
2021/09/08 00:20:12;;;;;;;21.75;12.43;;;;;;;16.04;100.00;101221.84;5051006;28;20048;-69
2021/09/08 00:22:40;;;;;;;25.77;12.27;;;;;;;15.90;100.00;101226.22;5048447;28;20041;-70
2021/09/08 00:25:09;;;;;;;23.15;12.82;;;;;;;16.06;100.00;101223.31;5047659;28;20041;-69
2021/09/08 00:27:38;;;;;;;24.45;13.20;;;;;;;16.17;100.00;101214.75;5057508;28;20442;-69
2021/09/08 00:30:09;;;;;;;23.08;12.52;;;;;;;16.19;100.00;101211.88;5043517;28;20040;-69
2021/09/08 00:32:37;;;;;;;23.00;12.82;;;;;;;16.11;100.00;101217.38;5051808;28;20102;-69
2021/09/08 00:35:06;;;;;;;22.90;11.80;;;;;;;16.05;100.00;101208.19;5049493;28;20057;-69
2021/09/08 00:37:37;;;;;;;21.30;12.35;;;;;;;15.91;100.00;101209.06;5049423;28;20033;-69
2021/09/08 00:40:06;;;;;;;19.27;10.93;;;;;;;15.68;100.00;101218.06;5043094;28;20038;-69
2021/09/08 00:42:34;;;;;;;21.65;11.90;;;;;;;15.50;100.00;101213.88;5045787;28;20087;-69
2021/09/08 00:45:02;;;;;;;20.27;11.18;;;;;;;15.43;100.00;101220.19;5047151;28;20037;-69
2021/09/08 00:47:32;;;;;;;23.60;13.35;;;;;;;15.18;100.00;101222.31;5047238;28;20035;-69
2021/09/08 00:50:00;;;;;;;23.85;12.82;;;;;;;14.94;100.00;101221.50;5048199;28;20041;-69
2021/09/08 00:52:28;;;;;;;27.33;13.85;;;;;;;14.80;100.00;101221.31;5047484;28;20037;-69
2021/09/08 00:54:56;;;;;;;20.08;12.70;;;;;;;14.79;100.00;101222.31;5049396;28;20112;-69
2021/09/08 00:57:26;;;;;;;26.77;14.48;;;;;;;14.85;100.00;101222.63;5044134;28;20089;-69
2021/09/08 00:59:54;;;;;;;29.33;15.25;;;;;;;14.78;100.00;101212.56;5041395;28;20094;-69
2021/09/08 01:02:22;;;;;;;28.00;13.90;;;;;;;14.78;100.00;101212.56;5047039;28;20055;-69
2021/09/08 01:04:51;;;;;;;26.40;14.77;;;;;;;14.72;100.00;101223.25;5046992;28;20032;-69
2021/09/08 01:07:19;;;;;;;29.13;13.60;;;;;;;14.68;100.00;101224.59;5046305;28;20040;-69
2021/09/08 01:09:47;;;;;;;21.00;11.93;;;;;;;14.60;100.00;101230.84;5049215;28;20387;-69
2021/09/08 01:12:16;;;;;;;26.13;13.52;;;;;;;14.58;100.00;101225.66;5047341;28;20037;-69
2021/09/08 01:14:44;;;;;;;21.58;12.10;;;;;;;14.72;100.00;101229.44;5043232;28;20046;-69
2021/09/08 01:17:11;;;;;;;25.70;12.55;;;;;;;14.53;100.00;101229.88;5048531;28;20400;-69
2021/09/08 01:19:39;;;;;;;25.85;14.25;;;;;;;14.26;100.00;101230.25;5040475;28;20041;-68
2021/09/08 01:22:09;;;;;;;25.95;13.75;;;;;;;14.26;100.00;101237.44;5040689;28;20115;-69
2021/09/08 01:24:40;;;;;;;30.63;14.57;;;;;;;14.59;100.00;101239.94;5046025;28;20341;-69
2021/09/08 01:27:08;;;;;;;29.67;15.45;;;;;;;14.44;100.00;101231.78;5042483;28;20045;-69
2021/09/08 01:29:37;;;;;;;31.75;15.10;;;;;;;14.35;100.00;101228.34;5043486;28;20448;-69
2021/09/08 01:32:06;;;;;;;33.40;16.20;;;;;;;14.39;100.00;101226.97;5044081;28;20049;-69
2021/09/08 01:34:34;;;;;;;30.95;15.90;;;;;;;14.39;100.00;101223.47;5052975;28;20071;-69
2021/09/08 01:37:01;;;;;;;28.33;16.02;;;;;;;14.51;100.00;101235.44;5045305;28;20106;-69
2021/09/08 01:39:30;;;;;;;31.85;17.58;;;;;;;14.62;100.00;101221.63;5040442;28;20045;-69
2021/09/08 01:41:59;;;;;;;30.75;16.27;;;;;;;14.56;100.00;101226.84;5043413;28;20049;-69
2021/09/08 01:44:27;;;;;;;28.20;14.93;;;;;;;14.39;100.00;101218.91;5048067;28;20043;-69
2021/09/08 01:46:56;;;;;;;29.08;15.15;;;;;;;14.33;100.00;101219.63;5048519;28;20044;-69
2021/09/08 01:49:24;;;;;;;26.95;14.35;;;;;;;14.40;100.00;101220.59;5043275;28;20060;-69
2021/09/08 01:51:52;;;;;;;25.95;13.80;;;;;;;14.42;100.00;101217.72;5047709;28;20041;-69
2021/09/08 01:54:20;;;;;;;28.73;14.85;;;;;;;14.20;100.00;101217.50;5047202;28;20075;-69
2021/09/08 01:56:48;;;;;;;34.13;16.35;;;;;;;14.10;100.00;101209.69;5046349;28;20045;-69
2021/09/08 01:59:17;;;;;;;33.88;16.52;;;;;;;14.16;100.00;101212.66;5043612;28;20037;-69
2021/09/08 02:01:45;;;;;;;36.45;17.48;;;;;;;14.33;100.00;101213.41;5041345;28;20094;-69
2021/09/08 02:04:14;;;;;;;36.20;17.75;;;;;;;14.34;100.00;101217.78;5042405;28;20076;-68
2021/09/08 02:06:48;;;;;;;42.00;17.98;;;;;;;14.43;100.00;101219.38;5046384;28;20037;-69
2021/09/08 02:09:18;;;;;;;34.80;18.20;;;;;;;14.53;100.00;101216.44;5043219;28;20060;-69
2021/09/08 02:11:46;;;;;;;38.38;18.55;;;;;;;14.59;100.00;101221.13;5042621;28;20041;-69
2021/09/08 02:14:14;;;;;;;29.65;16.15;;;;;;;14.36;100.00;101218.41;5041998;28;20052;-69
2021/09/08 02:16:44;;;;;;;24.83;12.85;;;;;;;14.41;100.00;101216.88;5050133;28;20056;-69
2021/09/08 02:19:12;;;;;;;28.58;14.05;;;;;;;14.18;100.00;101213.34;5044042;28;20053;-69
2021/09/08 02:21:40;;;;;;;29.25;15.80;;;;;;;14.20;100.00;101206.75;5043112;28;20051;-69
2021/09/08 02:24:08;;;;;;;38.33;16.50;;;;;;;14.49;100.00;101209.75;5050448;28;20045;-69
2021/09/08 02:26:36;;;;;;;35.63;17.63;;;;;;;14.54;100.00;101197.44;5045333;28;20433;-69
2021/09/08 02:29:04;;;;;;;35.13;19.45;;;;;;;14.51;100.00;101191.63;5047404;28;20130;-69
2021/09/08 02:31:32;;;;;;;32.53;17.73;;;;;;;14.53;100.00;101193.13;5046916;28;20040;-69
2021/09/08 02:34:02;;;;;;;35.22;17.58;;;;;;;14.61;100.00;101184.13;5049838;28;20136;-69
2021/09/08 02:36:30;;;;;;;34.80;16.17;;;;;;;14.66;100.00;101180.94;5054304;28;20372;-69
2021/09/08 02:38:58;;;;;;;32.50;15.82;;;;;;;14.69;100.00;101188.66;5047078;28;20055;-69
2021/09/08 02:41:26;;;;;;;36.35;16.50;;;;;;;14.65;100.00;101184.66;5043355;28;20079;-69
2021/09/08 02:43:54;;;;;;;32.42;16.73;;;;;;;14.65;100.00;101180.09;5045180;28;20290;-69
2021/09/08 02:46:22;;;;;;;28.27;13.88;;;;;;;14.39;100.00;101177.78;5049557;28;20040;-69
2021/09/08 02:48:50;;;;;;;30.80;14.73;;;;;;;14.31;100.00;101184.03;5054263;28;20065;-69
2021/09/08 02:51:19;;;;;;;28.30;14.27;;;;;;;14.09;100.00;101181.16;5047178;28;20044;-68
2021/09/08 02:53:47;;;;;;;35.05;15.70;;;;;;;13.96;100.00;101175.53;5049151;28;20102;-68
2021/09/08 02:56:15;;;;;;;36.35;17.25;;;;;;;14.27;100.00;101178.19;5051030;28;20053;-69
2021/09/08 02:58:43;;;;;;;32.25;17.67;;;;;;;14.25;100.00;101172.16;5047751;28;20414;-69
2021/09/08 03:01:11;;;;;;;31.98;15.90;;;;;;;14.24;100.00;101175.03;5047982;28;20071;-68
2021/09/08 03:03:40;;;;;;;29.17;15.02;;;;;;;14.30;100.00;101171.63;5049336;28;20052;-69
2021/09/08 03:06:08;;;;;;;24.55;12.77;;;;;;;14.31;100.00;101177.84;5051712;28;20041;-68
2021/09/08 03:08:37;;;;;;;25.13;13.60;;;;;;;14.02;100.00;101177.53;5048698;28;20472;-69
2021/09/08 03:11:05;;;;;;;26.98;13.75;;;;;;;13.91;100.00;101178.75;5043739;28;20037;-69
2021/09/08 03:13:33;;;;;;;26.02;13.65;;;;;;;13.82;100.00;101181.66;5047434;28;20406;-69
2021/09/08 03:16:01;;;;;;;30.50;15.65;;;;;;;13.90;100.00;101186.97;5052308;28;20047;-69
2021/09/08 03:18:29;;;;;;;35.22;16.60;;;;;;;14.22;100.00;101177.88;5049513;28;20341;-69
2021/09/08 03:20:57;;;;;;;40.03;17.92;;;;;;;14.23;100.00;101181.41;5045827;28;20620;-69
2021/09/08 03:23:24;;;;;;;39.28;19.02;;;;;;;14.30;100.00;101176.97;5047304;28;20044;-69
2021/09/08 03:25:54;;;;;;;35.90;18.25;;;;;;;14.36;100.00;101160.16;5047664;28;20102;-69
2021/09/08 03:28:21;;;;;;;32.53;18.15;;;;;;;14.53;100.00;101158.19;5045632;28;20045;-69
2021/09/08 03:30:49;;;;;;;35.92;16.77;;;;;;;14.62;100.00;101153.59;5049797;28;20080;-69
2021/09/08 03:33:17;;;;;;;39.30;17.70;;;;;;;14.72;100.00;101148.78;5046080;28;20041;-69
2021/09/08 03:35:45;;;;;;;34.40;17.65;;;;;;;14.89;100.00;101140.59;5053920;28;20041;-69
2021/09/08 03:38:13;;;;;;;34.92;17.17;;;;;;;14.95;100.00;101137.16;5046869;28;20052;-69
2021/09/08 03:40:41;;;;;;;34.50;17.27;;;;;;;14.98;100.00;101134.09;5045826;28;20157;-69
2021/09/08 03:43:10;;;;;;;34.15;16.00;;;;;;;15.01;100.00;101130.19;5053627;28;20098;-69
2021/09/08 03:45:38;;;;;;;31.55;14.98;;;;;;;15.11;100.00;101117.31;5048360;28;20087;-69
2021/09/08 03:48:06;;;;;;;31.55;16.75;;;;;;;15.15;100.00;101119.47;5049535;28;20103;-69
2021/09/08 03:50:34;;;;;;;28.55;15.23;;;;;;;15.20;100.00;101112.69;5041715;28;20168;-69
2021/09/08 03:53:02;;;;;;;28.23;15.25;;;;;;;15.18;100.00;101104.78;5051895;28;20045;-69
2021/09/08 03:55:30;;;;;;;29.23;15.65;;;;;;;15.05;100.00;101105.44;5049883;28;20167;-69
2021/09/08 03:57:58;;;;;;;30.17;16.33;;;;;;;14.91;100.00;101103.56;5048074;28;20049;-69
2021/09/08 04:00:27;;;;;;;29.55;15.73;;;;;;;14.82;100.00;101102.84;5043608;28;20048;-69
2021/09/08 04:03:03;;;;;;;29.63;15.65;;;;;;;14.79;100.00;101095.97;5048049;28;20041;-69
2021/09/08 04:05:32;;;;;;;30.73;15.70;;;;;;;14.75;100.00;101102.72;5049145;28;20466;-69
2021/09/08 04:07:59;;;;;;;29.23;15.18;;;;;;;14.73;100.00;101099.41;5050513;28;20041;-69
2021/09/08 04:10:27;;;;;;;28.95;15.10;;;;;;;14.75;100.00;101094.66;5043017;28;20472;-69
2021/09/08 04:12:55;;;;;;;30.38;15.07;;;;;;;14.71;100.00;101098.72;5054573;28;20328;-69
2021/09/08 04:15:23;;;;;;;28.05;15.15;;;;;;;14.76;100.00;101096.34;5047745;28;20340;-69
2021/09/08 04:17:52;;;;;;;28.67;15.50;;;;;;;14.73;100.00;101094.03;5051063;28;20103;-69
2021/09/08 04:20:20;;;;;;;31.65;14.95;;;;;;;14.79;100.00;101095.13;5046116;28;20082;-69
2021/09/08 04:22:48;;;;;;;28.63;15.07;;;;;;;14.78;100.00;101094.28;5051166;28;20036;-69
2021/09/08 04:25:16;;;;;;;27.90;13.75;;;;;;;14.80;100.00;101089.56;5052112;28;20400;-71
2021/09/08 04:27:44;;;;;;;33.13;15.93;;;;;;;14.74;100.00;101092.16;5045843;28;20365;-69
2021/09/08 04:30:12;;;;;;;33.08;15.85;;;;;;;14.75;100.00;101094.66;5043056;28;20045;-69
2021/09/08 04:32:40;;;;;;;25.80;15.02;;;;;;;14.68;100.00;101092.91;5049636;28;20330;-69
2021/09/08 04:35:10;;;;;;;32.78;15.93;;;;;;;14.72;100.00;101088.84;5050430;28;20044;-69
2021/09/08 04:37:38;;;;;;;30.35;15.48;;;;;;;14.79;100.00;101085.22;5047032;28;20037;-69
2021/09/08 04:40:07;;;;;;;32.08;15.63;;;;;;;14.73;100.00;101085.09;5043848;28;20037;-69
2021/09/08 04:42:35;;;;;;;31.85;15.38;;;;;;;14.64;100.00;101087.03;5043158;28;20052;-69
2021/09/08 04:45:03;;;;;;;25.42;15.35;;;;;;;14.58;100.00;101083.22;5047173;28;20041;-69
2021/09/08 04:47:32;;;;;;;27.83;15.10;;;;;;;14.59;100.00;101079.50;5045607;28;20040;-68
2021/09/08 04:50:00;;;;;;;30.88;14.48;;;;;;;14.53;100.00;101079.41;5043851;28;20114;-70
2021/09/08 04:52:30;;;;;;;26.13;14.07;;;;;;;14.52;100.00;101077.75;5045968;28;20094;-69
2021/09/08 04:54:58;;;;;;;30.27;15.65;;;;;;;14.49;100.00;101087.00;5047246;28;20058;-69
2021/09/08 04:57:26;;;;;;;28.08;14.18;;;;;;;14.24;100.00;101078.31;5045988;28;20488;-69
2021/09/08 04:59:53;;;;;;;27.85;15.15;;;;;;;14.11;100.00;101087.00;5040525;28;20045;-69
2021/09/08 05:02:21;;;;;;;34.13;15.32;;;;;;;14.24;100.00;101086.38;5048545;28;20040;-69
2021/09/08 05:04:49;;;;;;;32.45;16.30;;;;;;;14.33;100.00;101089.84;5045138;28;20041;-69
2021/09/08 05:07:17;;;;;;;30.70;15.48;;;;;;;14.39;100.00;101084.56;5050520;28;20140;-69
2021/09/08 05:09:46;;;;;;;27.27;13.52;;;;;;;14.42;100.00;101084.22;5044106;28;20052;-69
2021/09/08 05:12:15;;;;;;;26.27;14.93;;;;;;;14.43;100.00;101080.50;5044753;28;20105;-69
2021/09/08 05:14:43;;;;;;;29.63;13.35;;;;;;;14.56;100.00;101079.03;5048722;28;20037;-69
2021/09/08 05:17:11;;;;;;;27.50;14.13;;;;;;;14.59;100.00;101073.31;5046125;28;20264;-69
2021/09/08 05:19:39;;;;;;;24.98;13.98;;;;;;;14.67;100.00;101081.31;5043746;28;20391;-69
2021/09/08 05:22:07;;;;;;;25.13;13.68;;;;;;;14.71;100.00;101069.16;5044501;28;20187;-69
2021/09/08 05:24:34;;;;;;;19.45;11.98;;;;;;;14.77;100.00;101070.28;5043954;28;20045;-68
2021/09/08 05:27:04;;;;;;;23.75;12.60;;;;;;;14.83;100.00;101074.09;5044862;28;20052;-69
2021/09/08 05:29:32;;;;;;;20.58;12.07;;;;;;;14.91;100.00;101069.47;5043317;28;20258;-69
2021/09/08 05:32:00;;;;;;;25.60;13.75;;;;;;;14.85;100.00;101066.69;5046267;28;20388;-69
2021/09/08 05:34:28;;;;;;;24.92;13.32;;;;;;;14.86;100.00;101068.38;5043760;28;20045;-69
2021/09/08 05:36:56;;;;;;;22.48;12.80;;;;;;;14.87;100.00;101064.63;5047143;28;20407;-69
2021/09/08 05:39:24;;;;;;;22.65;11.32;;;;;;;14.95;100.00;101068.06;5047526;28;20057;-69
2021/09/08 05:41:52;;;;;;;25.85;14.85;;;;;;;15.03;100.00;101056.38;5039641;28;20075;-69
2021/09/08 05:44:21;;;;;;;26.52;12.07;;;;;;;15.15;100.00;101051.34;5045599;28;20037;-70
2021/09/08 05:46:49;;;;;;;21.20;12.18;;;;;;;15.60;100.00;101044.00;5044200;28;20045;-69
2021/09/08 05:49:17;;;;;;;19.98;11.50;;;;;;;16.13;100.00;101038.34;5047237;28;20496;-69
2021/09/08 05:51:45;;;;;;;18.48;10.65;;;;;;;16.48;100.00;101037.56;5045732;28;20044;-69
2021/09/08 05:54:13;;;;;;;22.10;11.43;;;;;;;16.68;100.00;101035.00;5047116;28;20048;-69
2021/09/08 05:56:41;;;;;;;20.38;11.25;;;;;;;16.87;100.00;101028.88;5050783;28;20052;-69
2021/09/08 05:59:09;;;;;;;18.65;10.43;;;;;;;16.87;100.00;101028.06;5044102;28;20166;-69
2021/09/08 06:01:38;;;;;;;20.17;10.30;;;;;;;17.10;100.00;101026.94;5041529;28;20341;-69
2021/09/08 06:04:06;;;;;;;18.30;10.05;;;;;;;17.38;100.00;101024.16;5047948;28;20112;-69
2021/09/08 06:06:34;;;;;;;16.90;9.82;;;;;;;17.41;100.00;101020.19;5048080;28;20083;-69
2021/09/08 06:09:03;;;;;;;19.65;9.80;;;;;;;17.51;100.00;101017.94;5045218;28;20115;-69
2021/09/08 06:11:32;;;;;;;19.42;10.52;;;;;;;17.68;100.00;101013.81;5044789;28;20041;-69
2021/09/08 06:13:59;;;;;;;17.10;9.90;;;;;;;17.80;100.00;101008.63;5042893;28;20048;-69
2021/09/08 06:16:27;;;;;;;18.40;9.75;;;;;;;17.88;100.00;101013.00;5045622;28;20060;-69
2021/09/08 06:18:57;;;;;;;17.83;9.57;;;;;;;17.96;100.00;101009.28;5043341;28;20473;-69
2021/09/08 06:21:25;;;;;;;16.67;9.60;;;;;;;17.92;100.00;101008.88;5045239;28;20362;-69
2021/09/08 06:23:53;;;;;;;19.65;9.85;;;;;;;18.08;100.00;101009.53;5049302;28;20040;-69
2021/09/08 06:26:20;;;;;;;17.73;10.70;;;;;;;18.18;100.00;101013.44;5042865;28;20041;-69
2021/09/08 06:28:51;;;;;;;17.77;11.50;;;;;;;18.33;100.00;101004.28;5046751;28;20041;-69
2021/09/08 06:31:19;;;;;;;18.45;10.35;;;;;;;18.41;100.00;100998.66;5046271;28;20098;-69
2021/09/08 06:33:47;;;;;;;16.98;10.32;;;;;;;18.31;100.00;101001.78;5047210;28;20033;-69
2021/09/08 06:36:16;;;;;;;17.08;10.82;;;;;;;18.33;100.00;101001.56;5047600;28;20489;-69
2021/09/08 06:38:44;;;;;;;18.63;10.65;;;;;;;18.37;100.00;100998.25;5040186;28;20067;-69
2021/09/08 06:41:12;;;;;;;19.92;10.55;;;;;;;18.53;100.00;100993.44;5040023;28;20434;-69
2021/09/08 06:43:40;;;;;;;18.25;10.05;;;;;;;18.65;100.00;100993.63;5042004;28;20457;-69
2021/09/08 06:46:07;;;;;;;16.33;10.23;;;;;;;18.71;100.00;100990.91;5046194;28;20048;-69
2021/09/08 06:48:36;;;;;;;17.70;11.52;;;;;;;18.70;100.00;100983.81;5044878;28;20440;-69
2021/09/08 06:51:03;;;;;;;19.92;10.55;;;;;;;18.98;100.00;100979.16;5043588;28;20391;-69
2021/09/08 06:53:33;;;;;;;18.25;11.05;;;;;;;19.15;100.00;100980.34;5046328;28;20098;-69
2021/09/08 06:56:01;;;;;;;16.67;9.80;;;;;;;19.20;100.00;100972.41;5043584;28;20045;-69
2021/09/08 06:58:29;;;;;;;16.48;10.88;;;;;;;19.26;100.00;100968.00;5046019;28;20053;-69
2021/09/08 07:00:57;;;;;;;16.55;9.45;;;;;;;19.31;100.00;100964.63;5045629;28;20449;-69
2021/09/08 07:03:25;;;;;;;17.60;10.80;;;;;;;19.37;100.00;100961.06;5046407;28;20275;-69
2021/09/08 07:05:53;;;;;;;24.08;10.85;;;;;;;19.56;100.00;100964.69;5046189;28;20128;-69
2021/09/08 07:08:21;;;;;;;20.90;12.00;;;;;;;19.83;100.00;100967.22;5047279;28;20368;-69
2021/09/08 07:10:53;;;;;;;16.20;10.20;;;;;;;20.08;100.00;100959.09;5046026;28;20056;-69
2021/09/08 07:13:21;;;;;;;19.60;10.88;;;;;;;20.20;100.00;100954.59;5046090;28;20033;-69
2021/09/08 07:15:49;;;;;;;17.27;10.77;;;;;;;20.15;100.00;100957.13;5053324;28;20045;-69
2021/09/08 07:18:17;;;;;;;20.15;10.73;;;;;;;20.02;100.00;100965.41;5049626;28;20302;-69
2021/09/08 07:20:45;;;;;;;18.50;10.07;;;;;;;20.16;100.00;100957.94;5046549;28;20067;-69
2021/09/08 07:23:13;;;;;;;17.38;11.75;;;;;;;20.10;100.00;100960.53;5052154;28;20041;-69
2021/09/08 07:25:41;;;;;;;22.20;11.98;;;;;;;20.25;100.00;100962.03;5047870;28;20045;-70
2021/09/08 07:28:10;;;;;;;17.40;10.40;;;;;;;20.27;100.00;100957.22;5050535;28;20086;-69
2021/09/08 07:30:38;;;;;;;16.98;11.10;;;;;;;20.44;100.00;100961.00;5045344;28;20110;-69
2021/09/08 07:33:06;;;;;;;22.05;12.18;;;;;;;20.44;100.00;100957.44;5045974;28;20429;-69
2021/09/08 07:35:34;;;;;;;19.83;11.43;;;;;;;20.44;100.00;100954.75;5050308;28;20467;-69
2021/09/08 07:38:02;;;;;;;19.77;11.48;;;;;;;20.58;100.00;100948.13;5051292;28;20040;-69
2021/09/08 07:40:29;;;;;;;19.10;10.57;;;;;;;20.74;100.00;100943.16;5052315;28;20341;-69
2021/09/08 07:42:57;;;;;;;20.65;10.57;;;;;;;20.85;100.00;100950.53;5047572;28;20045;-70
2021/09/08 07:45:27;;;;;;;21.95;11.40;;;;;;;21.22;100.00;100949.63;5046448;28;20056;-69
2021/09/08 07:47:54;;;;;;;19.15;10.68;;;;;;;21.35;100.00;100949.44;5051354;28;20473;-69
2021/09/08 07:50:22;;;;;;;17.10;10.77;;;;;;;21.17;100.00;100936.75;5043875;28;20453;-69
2021/09/08 07:52:50;;;;;;;18.17;10.32;;;;;;;21.79;100.00;100943.78;5053669;28;20043;-69
2021/09/08 07:55:18;;;;;;;17.20;10.40;;;;;;;22.18;100.00;100944.13;5052521;28;20349;-69
2021/09/08 07:57:46;;;;;;;20.02;11.63;;;;;;;21.98;100.00;100942.59;5046618;28;20102;-69
2021/09/08 08:00:15;;;;;;;16.60;10.30;;;;;;;22.37;100.00;100938.59;5043336;28;20044;-70
2021/09/08 08:02:46;;;;;;;16.13;9.93;;;;;;;22.12;100.00;100931.50;5047393;28;20029;-70
2021/09/08 08:05:15;;;;;;;16.17;10.98;;;;;;;22.08;100.00;100943.91;5048910;28;20049;-70
2021/09/08 08:07:44;;;;;;;17.35;11.10;;;;;;;21.97;100.00;100940.09;5047259;28;20052;-69
2021/09/08 08:10:12;;;;;;;16.85;9.73;;;;;;;21.98;100.00;100934.44;5050173;28;20057;-69
2021/09/08 08:12:41;;;;;;;17.23;10.98;;;;;;;22.08;100.00;100930.31;5047988;28;20045;-70
2021/09/08 08:15:10;;;;;;;19.52;10.60;;;;;;;22.49;100.00;100931.22;5048842;28;20052;-70
2021/09/08 08:17:38;;;;;;;18.70;10.00;;;;;;;22.62;100.00;100939.13;5049871;28;20055;-69
2021/09/08 08:20:10;;;;;;;18.17;10.73;;;;;;;22.59;100.00;100930.63;5050011;28;20125;-70
2021/09/08 08:22:39;;;;;;;17.27;9.70;;;;;;;22.72;100.00;100937.69;5043098;28;20041;-70
2021/09/08 08:25:09;;;;;;;15.32;9.45;;;;;;;23.07;100.00;100931.28;5046437;28;20037;-69
2021/09/08 08:27:38;;;;;;;17.13;10.15;;;;;;;23.70;100.00;100932.97;5051234;28;20048;-69
2021/09/08 08:30:09;;;;;;;15.75;9.30;;;;;;;24.16;100.00;100929.31;5049300;28;20049;-70
2021/09/08 08:32:38;;;;;;;17.33;9.70;;;;;;;24.26;100.00;100926.72;5048086;28;20358;-67
2021/09/08 08:35:07;;;;;;;14.73;8.45;;;;;;;24.21;100.00;100919.28;5054153;28;20448;-68
2021/09/08 08:37:36;;;;;;;14.07;9.10;;;;;;;24.19;100.00;100926.88;5048877;28;20179;-67
2021/09/08 08:40:06;;;;;;;12.38;8.27;;;;;;;23.83;100.00;100922.78;5049890;28;20044;-67
2021/09/08 08:42:35;;;;;;;13.77;8.18;;;;;;;24.24;100.00;100926.97;5050827;28;20475;-67
2021/09/08 08:45:03;;;;;;;13.57;8.43;;;;;;;24.86;100.00;100924.19;5045071;28;20048;-68
2021/09/08 08:47:32;;;;;;;13.85;7.78;;;;;;;25.04;100.00;100932.03;5049201;28;20055;-67
2021/09/08 08:50:00;;;;;;;19.77;9.02;;;;;;;25.43;100.00;100929.16;5044191;28;20040;-67
2021/09/08 08:52:28;;;;;;;11.23;7.40;;;;;;;25.12;100.00;100921.72;5047406;28;20041;-68
2021/09/08 08:54:57;;;;;;;12.95;7.88;;;;;;;25.24;100.00;100925.94;5049519;28;20247;-67
2021/09/08 08:57:26;;;;;;;14.88;7.70;;;;;;;25.42;100.00;100926.69;5050307;28;20049;-67
2021/09/08 08:59:56;;;;;;;15.07;8.82;;;;;;;25.86;100.00;100920.19;5047896;28;20040;-68
2021/09/08 09:02:26;;;;;;;16.08;9.85;;;;;;;26.11;100.00;100922.28;5046381;28;20036;-68
2021/09/08 09:04:55;;;;;;;13.02;7.85;;;;;;;25.93;100.00;100918.88;5051954;28;20413;-68
2021/09/08 09:07:25;;;;;;;13.15;7.70;;;;;;;26.02;100.00;100919.22;5048378;28;20053;-68
2021/09/08 09:09:56;;;;;;;12.77;7.28;;;;;;;26.25;100.00;100922.63;5046294;28;20048;-68
2021/09/08 09:12:32;;;;;;;11.75;7.75;;;;;;;26.02;100.00;100911.00;5053894;28;20040;-67
2021/09/08 09:15:02;;;;;;;13.52;7.57;;;;;;;25.97;100.00;100910.97;5045277;28;20037;-68
2021/09/08 09:17:32;;;;;;;12.85;7.63;;;;;;;26.18;100.00;100911.91;5048314;28;20048;-68
2021/09/08 09:20:03;;;;;;;15.63;8.10;;;;;;;26.15;100.00;100903.44;5042781;28;20040;-67
2021/09/08 09:22:39;;;;;;;11.55;6.82;;;;;;;26.76;100.00;100906.41;5044662;28;20041;-68
2021/09/08 09:25:10;;;;;;;13.52;8.63;;;;;;;26.30;100.00;100895.28;5046580;28;20053;-67
2021/09/08 09:27:45;;;;;;;11.45;6.65;;;;;;;26.46;100.00;100901.66;5045637;28;20032;-67
2021/09/08 09:30:13;;;;;;;;;;;;;;;26.59;100.00;100895.66;5045595;28;21740;-68
2021/09/08 09:32:42;;;;;;;10.95;6.70;;;;;;;27.21;100.00;100900.50;5048776;28;19920;-68
2021/09/08 09:35:12;;;;;;;9.55;6.88;;;;;;;27.11;100.00;100893.09;5050098;28;20048;-67
2021/09/08 09:37:45;;;;;;;9.73;6.07;;;;;;;26.80;100.00;100890.28;5053264;28;20048;-67
2021/09/08 09:40:14;;;;;;;14.05;6.90;;;;;;;27.13;100.00;100888.13;5042620;28;20815;-67
2021/09/08 09:42:45;;;;;;;9.73;6.53;;;;;;;26.77;100.00;100886.16;5048788;28;20041;-69
2021/09/08 09:45:15;;;;;;;14.43;6.20;;;;;;;27.07;100.00;100881.84;5045075;28;20472;-68
2021/09/08 09:47:45;;;;;;;10.10;6.82;;;;;;;26.90;100.00;100892.22;5045743;28;20653;-70
2021/09/08 09:50:17;;;;;;;12.95;7.10;;;;;;;27.03;100.00;100888.94;5045920;28;20052;-70
2021/09/08 09:52:47;;;;;;;10.65;6.85;;;;;;;26.91;100.00;100886.47;5045248;28;20075;-70
2021/09/08 09:55:15;;;;;;;9.13;6.25;;;;;;;27.08;100.00;100886.22;5046373;28;20048;-70
2021/09/08 09:57:45;;;;;;;10.55;7.00;;;;;;;27.76;100.00;100879.66;5045236;28;20110;-70
2021/09/08 10:00:14;;;;;;;9.07;6.55;;;;;;;27.72;100.00;100881.31;5041307;28;22157;-68
2021/09/08 10:02:43;;;;;;;12.00;7.07;;;;;;;27.61;100.00;100877.75;5048397;28;20110;-67
2021/09/08 10:05:12;;;;;;;11.85;5.93;;;;;;;27.83;100.00;100873.88;5044281;28;20096;-70
2021/09/08 10:07:40;;;;;;;10.57;6.40;;;;;;;27.70;100.00;100872.53;5045624;28;20106;-70
2021/09/08 10:10:13;;;;;;;10.35;6.13;;;;;;;28.34;100.00;100870.97;5046185;28;20087;-70
2021/09/08 10:12:46;;;;;;;11.60;6.15;;;;;;;28.62;100.00;100867.84;5045275;28;20095;-70
2021/09/08 10:15:16;;;;;;;9.60;6.53;;;;;;;28.65;100.00;100862.63;5046827;28;20437;-70
2021/09/08 10:17:45;;;;;;;10.60;6.18;;;;;;;28.33;100.00;100858.34;5045340;28;20045;-67
2021/09/08 10:20:17;;;;;;;10.38;6.00;;;;;;;27.95;100.00;100859.84;5043504;28;20972;-70
2021/09/08 10:22:45;;;;;;;9.40;6.55;;;;;;;27.77;100.00;100851.13;5046506;28;20098;-70
2021/09/08 10:25:14;;;;;;;9.05;6.07;;;;;;;28.15;100.00;100848.84;5045718;28;20052;-67
2021/09/08 10:27:42;;;;;;;10.57;6.38;;;;;;;28.39;100.00;100839.13;5051746;28;20049;-70
2021/09/08 10:30:32;;;;;;;8.13;6.35;;;;;;;28.09;100.00;100828.00;5043193;28;20137;-70
2021/09/08 10:33:04;;;;;;;11.50;6.32;;;;;;;28.70;100.00;100826.06;5050147;28;20125;-67
2021/09/08 10:35:38;;;;;;;7.75;5.55;;;;;;;28.98;100.00;100829.16;5045440;28;20045;-67
2021/09/08 10:38:11;;;;;;;10.07;6.18;;;;;;;28.79;100.00;100813.38;5044956;28;20056;-67
2021/09/08 10:40:40;;;;;;;11.13;5.82;;;;;;;28.95;100.00;100814.06;5046347;28;20056;-68
2021/09/08 10:43:08;;;;;;;11.70;6.20;;;;;;;28.88;100.00;100809.97;5045633;28;20049;-67
2021/09/08 10:45:49;;;;;;;11.10;5.65;;;;;;;29.28;100.00;100814.34;5044269;28;20056;-67
2021/09/08 10:48:36;;;;;;;12.98;5.53;;;;;;;29.03;100.00;100807.13;5048302;28;20313;-67
2021/09/08 10:51:04;;;;;;;8.77;5.22;;;;;;;28.76;100.00;100805.66;5048668;28;20033;-67
2021/09/08 10:53:37;;;;;;;10.43;5.82;;;;;;;28.66;100.00;100805.75;5053198;28;20094;-67
2021/09/08 10:56:06;;;;;;;8.95;5.68;;;;;;;28.47;100.00;100800.09;5053807;28;20052;-68
2021/09/08 10:58:59;;;;;;;11.60;5.70;;;;;;;28.44;100.00;100797.91;5050068;28;20056;-67
2021/09/08 11:01:29;;;;;;;8.93;5.20;;;;;;;28.65;100.00;100801.34;5052170;28;20041;-67
2021/09/08 11:03:58;;;;;;;9.85;5.90;;;;;;;29.06;100.00;100794.72;5050165;28;20037;-67
2021/09/08 11:06:40;;;;;;;10.38;6.07;;;;;;;29.48;100.00;100796.81;5050728;28;20049;-67
2021/09/08 11:09:10;;;;;;;9.15;5.60;;;;;;;29.22;100.00;100792.66;5052369;28;20436;-67
2021/09/08 11:11:53;;;;;;;7.63;5.15;;;;;;;28.99;100.00;100790.41;5047543;28;20037;-67